sensor_id;sensor_type;location;lat;lon;timestamp;pressure;altitude;pressure_sealevel;temperature;humidity
13209;BME280;6669;42.678;23.332;2023-05-08T00:00:55;94704.97;;;13.97;100.00
13209;BME280;6669;42.678;23.332;2023-05-08T00:03:24;94702.94;;;13.93;100.00
13209;BME280;6669;42.678;23.332;2023-05-08T00:05:52;94714.00;;;13.95;100.00
13209;BME280;6669;42.678;23.332;2023-05-08T00:08:22;94693.31;;;13.71;100.00
13209;BME280;6669;42.678;23.332;2023-05-08T00:10:52;94706.28;;;13.80;100.00
13209;BME280;6669;42.678;23.332;2023-05-08T00:13:23;94706.34;;;13.93;100.00
13209;BME280;6669;42.678;23.332;2023-05-08T00:15:51;94708.09;;;13.86;100.00
13209;BME280;6669;42.678;23.332;2023-05-08T00:18:19;94717.75;;;13.85;100.00
13209;BME280;6669;42.678;23.332;2023-05-08T00:20:47;94716.31;;;13.83;100.00
13209;BME280;6669;42.678;23.332;2023-05-08T00:23:15;94713.88;;;13.75;100.00
13209;BME280;6669;42.678;23.332;2023-05-08T00:25:43;94712.25;;;13.73;100.00
13209;BME280;6669;42.678;23.332;2023-05-08T00:28:13;94722.06;;;13.71;100.00
13209;BME280;6669;42.678;23.332;2023-05-08T00:30:41;94717.41;;;13.67;100.00
13209;BME280;6669;42.678;23.332;2023-05-08T00:33:10;94726.69;;;13.69;100.00
13209;BME280;6669;42.678;23.332;2023-05-08T00:35:38;94725.50;;;13.72;100.00
13209;BME280;6669;42.678;23.332;2023-05-08T00:38:08;94711.13;;;13.61;100.00
13209;BME280;6669;42.678;23.332;2023-05-08T00:40:36;94719.69;;;13.77;100.00
13209;BME280;6669;42.678;23.332;2023-05-08T00:43:04;94722.63;;;13.67;100.00
13209;BME280;6669;42.678;23.332;2023-05-08T00:45:36;94720.59;;;13.62;100.00
13209;BME280;6669;42.678;23.332;2023-05-08T00:48:04;94727.06;;;13.66;100.00
13209;BME280;6669;42.678;23.332;2023-05-08T00:50:33;94723.81;;;13.64;100.00
13209;BME280;6669;42.678;23.332;2023-05-08T00:53:03;94728.22;;;13.64;100.00
13209;BME280;6669;42.678;23.332;2023-05-08T00:55:31;94724.94;;;13.55;100.00
13209;BME280;6669;42.678;23.332;2023-05-08T00:58:00;94728.06;;;13.44;100.00
13209;BME280;6669;42.678;23.332;2023-05-08T01:00:28;94730.59;;;13.37;100.00
13209;BME280;6669;42.678;23.332;2023-05-08T01:02:59;94732.63;;;13.20;100.00
13209;BME280;6669;42.678;23.332;2023-05-08T01:05:27;94719.88;;;13.10;100.00
13209;BME280;6669;42.678;23.332;2023-05-08T01:07:57;94737.03;;;13.19;100.00
13209;BME280;6669;42.678;23.332;2023-05-08T01:10:33;94732.97;;;13.17;100.00
13209;BME280;6669;42.678;23.332;2023-05-08T01:13:10;94708.31;;;12.83;100.00
13209;BME280;6669;42.678;23.332;2023-05-08T01:15:47;94722.66;;;12.87;100.00
13209;BME280;6669;42.678;23.332;2023-05-08T01:18:24;94736.38;;;12.96;100.00
13209;BME280;6669;42.678;23.332;2023-05-08T01:21:01;94727.59;;;12.82;100.00
13209;BME280;6669;42.678;23.332;2023-05-08T01:23:58;94736.88;;;12.84;100.00
13209;BME280;6669;42.678;23.332;2023-05-08T01:27:02;94738.72;;;12.90;100.00
13209;BME280;6669;42.678;23.332;2023-05-08T01:32:40;94719.88;;;12.73;100.00
13209;BME280;6669;42.678;23.332;2023-05-08T01:35:16;94733.88;;;12.87;100.00
13209;BME280;6669;42.678;23.332;2023-05-08T01:37:51;94729.13;;;12.76;100.00
13209;BME280;6669;42.678;23.332;2023-05-08T01:40:30;94728.22;;;12.69;100.00
13209;BME280;6669;42.678;23.332;2023-05-08T01:43:07;94715.75;;;12.64;100.00
13209;BME280;6669;42.678;23.332;2023-05-08T01:45:39;94728.94;;;12.78;100.00
13209;BME280;6669;42.678;23.332;2023-05-08T01:48:11;94717.72;;;12.77;100.00
13209;BME280;6669;42.678;23.332;2023-05-08T01:50:44;94707.00;;;12.72;100.00
13209;BME280;6669;42.678;23.332;2023-05-08T01:53:20;94710.59;;;12.71;100.00
13209;BME280;6669;42.678;23.332;2023-05-08T01:55:54;94714.41;;;12.68;100.00
13209;BME280;6669;42.678;23.332;2023-05-08T01:58:24;94719.59;;;12.68;100.00
13209;BME280;6669;42.678;23.332;2023-05-08T02:00:54;94727.44;;;12.68;100.00
13209;BME280;6669;42.678;23.332;2023-05-08T02:03:24;94711.53;;;12.63;100.00
13209;BME280;6669;42.678;23.332;2023-05-08T02:05:54;94732.84;;;12.67;100.00
13209;BME280;6669;42.678;23.332;2023-05-08T02:08:23;94716.75;;;12.63;100.00
13209;BME280;6669;42.678;23.332;2023-05-08T02:10:55;94722.03;;;12.70;100.00
13209;BME280;6669;42.678;23.332;2023-05-08T02:13:25;94710.53;;;12.64;100.00
13209;BME280;6669;42.678;23.332;2023-05-08T02:15:55;94720.78;;;12.66;100.00
13209;BME280;6669;42.678;23.332;2023-05-08T02:18:27;94721.50;;;12.59;100.00
13209;BME280;6669;42.678;23.332;2023-05-08T02:20:59;94720.91;;;12.57;100.00
13209;BME280;6669;42.678;23.332;2023-05-08T02:23:28;94729.31;;;12.59;100.00
13209;BME280;6669;42.678;23.332;2023-05-08T02:25:57;94718.91;;;12.45;100.00
13209;BME280;6669;42.678;23.332;2023-05-08T02:28:26;94725.84;;;12.37;100.00
13209;BME280;6669;42.678;23.332;2023-05-08T02:30:57;94728.00;;;12.49;100.00
13209;BME280;6669;42.678;23.332;2023-05-08T02:33:28;94725.28;;;12.42;100.00
13209;BME280;6669;42.678;23.332;2023-05-08T02:35:57;94727.81;;;12.35;100.00
13209;BME280;6669;42.678;23.332;2023-05-08T02:38:27;94732.69;;;12.38;100.00
13209;BME280;6669;42.678;23.332;2023-05-08T02:40:59;94725.22;;;12.35;100.00
13209;BME280;6669;42.678;23.332;2023-05-08T02:43:28;94732.03;;;12.36;100.00
13209;BME280;6669;42.678;23.332;2023-05-08T02:46:04;94732.56;;;12.32;100.00
13209;BME280;6669;42.678;23.332;2023-05-08T02:48:42;94734.47;;;12.38;100.00
13209;BME280;6669;42.678;23.332;2023-05-08T02:51:17;94735.03;;;12.33;100.00
13209;BME280;6669;42.678;23.332;2023-05-08T02:53:51;94743.28;;;12.37;100.00
13209;BME280;6669;42.678;23.332;2023-05-08T02:56:30;94739.13;;;12.27;100.00
13209;BME280;6669;42.678;23.332;2023-05-08T02:59:08;94734.81;;;12.20;100.00
13209;BME280;6669;42.678;23.332;2023-05-08T03:01:43;94736.00;;;12.17;100.00
13209;BME280;6669;42.678;23.332;2023-05-08T03:04:30;94735.44;;;12.07;100.00
13209;BME280;6669;42.678;23.332;2023-05-08T03:07:02;94733.56;;;12.01;100.00
13209;BME280;6669;42.678;23.332;2023-05-08T03:09:35;94739.63;;;11.93;100.00
13209;BME280;6669;42.678;23.332;2023-05-08T03:12:10;94739.34;;;11.88;100.00
13209;BME280;6669;42.678;23.332;2023-05-08T03:14:43;94747.41;;;11.78;100.00
13209;BME280;6669;42.678;23.332;2023-05-08T03:17:14;94738.16;;;11.75;100.00
13209;BME280;6669;42.678;23.332;2023-05-08T03:19:47;94730.06;;;11.70;100.00
13209;BME280;6669;42.678;23.332;2023-05-08T03:22:18;94734.28;;;11.71;100.00
13209;BME280;6669;42.678;23.332;2023-05-08T03:24:48;94754.75;;;11.74;100.00
13209;BME280;6669;42.678;23.332;2023-05-08T03:27:17;94746.13;;;11.74;100.00
13209;BME280;6669;42.678;23.332;2023-05-08T03:29:47;94745.31;;;11.73;100.00
13209;BME280;6669;42.678;23.332;2023-05-08T03:32:16;94753.94;;;11.74;100.00
13209;BME280;6669;42.678;23.332;2023-05-08T03:34:47;94752.59;;;11.78;100.00
13209;BME280;6669;42.678;23.332;2023-05-08T03:37:15;94759.34;;;11.72;100.00
13209;BME280;6669;42.678;23.332;2023-05-08T03:39:43;94758.50;;;11.72;100.00
13209;BME280;6669;42.678;23.332;2023-05-08T03:42:12;94744.06;;;11.69;100.00
13209;BME280;6669;42.678;23.332;2023-05-08T03:44:49;94760.31;;;11.71;100.00
13209;BME280;6669;42.678;23.332;2023-05-08T03:47:17;94722.25;;;11.70;100.00
13209;BME280;6669;42.678;23.332;2023-05-08T03:49:48;94754.50;;;11.84;100.00
13209;BME280;6669;42.678;23.332;2023-05-08T03:52:16;94760.19;;;11.88;100.00
13209;BME280;6669;42.678;23.332;2023-05-08T03:54:44;94749.66;;;11.81;100.00
13209;BME280;6669;42.678;23.332;2023-05-08T03:57:12;94752.69;;;11.85;100.00
13209;BME280;6669;42.678;23.332;2023-05-08T03:59:45;94758.78;;;11.77;100.00
13209;BME280;6669;42.678;23.332;2023-05-08T04:02:20;94761.16;;;11.87;100.00
13209;BME280;6669;42.678;23.332;2023-05-08T04:04:59;94763.38;;;11.98;100.00
13209;BME280;6669;42.678;23.332;2023-05-08T04:07:32;94756.94;;;11.86;100.00
13209;BME280;6669;42.678;23.332;2023-05-08T04:10:06;94749.94;;;11.86;100.00
13209;BME280;6669;42.678;23.332;2023-05-08T04:12:42;94774.06;;;12.03;100.00
13209;BME280;6669;42.678;23.332;2023-05-08T04:15:28;94759.09;;;12.05;100.00
13209;BME280;6669;42.678;23.332;2023-05-08T04:17:59;94770.50;;;12.19;100.00
13209;BME280;6669;42.678;23.332;2023-05-08T04:20:32;94769.34;;;12.22;100.00
13209;BME280;6669;42.678;23.332;2023-05-08T04:23:01;94780.59;;;12.37;100.00
13209;BME280;6669;42.678;23.332;2023-05-08T04:25:31;94778.31;;;12.34;100.00
13209;BME280;6669;42.678;23.332;2023-05-08T04:28:02;94782.22;;;12.38;100.00
13209;BME280;6669;42.678;23.332;2023-05-08T04:30:30;94771.34;;;12.35;100.00
13209;BME280;6669;42.678;23.332;2023-05-08T04:32:58;94765.84;;;12.30;100.00
13209;BME280;6669;42.678;23.332;2023-05-08T04:35:27;94781.84;;;12.41;100.00
13209;BME280;6669;42.678;23.332;2023-05-08T04:37:57;94773.56;;;12.53;100.00
13209;BME280;6669;42.678;23.332;2023-05-08T04:40:25;94769.63;;;12.57;100.00
13209;BME280;6669;42.678;23.332;2023-05-08T04:42:53;94770.53;;;12.64;100.00
13209;BME280;6669;42.678;23.332;2023-05-08T04:45:22;94771.31;;;12.80;100.00
13209;BME280;6669;42.678;23.332;2023-05-08T04:47:50;94767.78;;;12.87;100.00
13209;BME280;6669;42.678;23.332;2023-05-08T04:50:18;94749.34;;;12.89;100.00
13209;BME280;6669;42.678;23.332;2023-05-08T04:52:45;94760.47;;;12.98;100.00
13209;BME280;6669;42.678;23.332;2023-05-08T04:55:15;94759.75;;;13.04;100.00
13209;BME280;6669;42.678;23.332;2023-05-08T04:57:43;94724.06;;;12.89;100.00
13209;BME280;6669;42.678;23.332;2023-05-08T05:00:12;94738.63;;;12.99;100.00
13209;BME280;6669;42.678;23.332;2023-05-08T05:02:40;94759.91;;;13.17;100.00
13209;BME280;6669;42.678;23.332;2023-05-08T05:05:08;94745.16;;;13.09;100.00
13209;BME280;6669;42.678;23.332;2023-05-08T05:07:37;94760.16;;;13.22;100.00
13209;BME280;6669;42.678;23.332;2023-05-08T05:10:06;94753.56;;;13.27;100.00
13209;BME280;6669;42.678;23.332;2023-05-08T05:12:36;94746.72;;;13.25;100.00
13209;BME280;6669;42.678;23.332;2023-05-08T05:15:05;94754.13;;;13.22;100.00
13209;BME280;6669;42.678;23.332;2023-05-08T05:17:33;94747.22;;;13.14;100.00
13209;BME280;6669;42.678;23.332;2023-05-08T05:20:01;94749.03;;;13.35;100.00
13209;BME280;6669;42.678;23.332;2023-05-08T05:22:31;94752.44;;;13.51;100.00
13209;BME280;6669;42.678;23.332;2023-05-08T05:24:59;94756.03;;;13.50;100.00
13209;BME280;6669;42.678;23.332;2023-05-08T05:27:27;94741.00;;;13.52;100.00
13209;BME280;6669;42.678;23.332;2023-05-08T05:29:57;94757.59;;;13.66;100.00
13209;BME280;6669;42.678;23.332;2023-05-08T05:32:25;94752.81;;;13.69;100.00
13209;BME280;6669;42.678;23.332;2023-05-08T05:34:53;94755.72;;;13.81;100.00
13209;BME280;6669;42.678;23.332;2023-05-08T05:37:22;94746.28;;;13.87;100.00
13209;BME280;6669;42.678;23.332;2023-05-08T05:39:50;94744.88;;;13.84;100.00
13209;BME280;6669;42.678;23.332;2023-05-08T05:42:18;94747.56;;;13.91;100.00
13209;BME280;6669;42.678;23.332;2023-05-08T05:44:46;94750.81;;;14.00;100.00
13209;BME280;6669;42.678;23.332;2023-05-08T05:47:15;94750.25;;;14.04;100.00
13209;BME280;6669;42.678;23.332;2023-05-08T05:49:44;94749.84;;;14.07;100.00
13209;BME280;6669;42.678;23.332;2023-05-08T05:52:12;94744.63;;;14.07;100.00
13209;BME280;6669;42.678;23.332;2023-05-08T05:54:41;94754.28;;;14.07;100.00
13209;BME280;6669;42.678;23.332;2023-05-08T05:57:10;94742.66;;;14.10;100.00
13209;BME280;6669;42.678;23.332;2023-05-08T05:59:38;94748.75;;;14.17;100.00
13209;BME280;6669;42.678;23.332;2023-05-08T06:02:07;94733.84;;;14.17;100.00
13209;BME280;6669;42.678;23.332;2023-05-08T06:04:37;94734.84;;;14.16;100.00
13209;BME280;6669;42.678;23.332;2023-05-08T06:07:05;94731.09;;;14.26;100.00
13209;BME280;6669;42.678;23.332;2023-05-08T06:09:33;94736.63;;;14.44;100.00
13209;BME280;6669;42.678;23.332;2023-05-08T06:12:02;94732.88;;;14.53;100.00
13209;BME280;6669;42.678;23.332;2023-05-08T06:14:33;94730.28;;;14.60;100.00
13209;BME280;6669;42.678;23.332;2023-05-08T06:17:01;94735.00;;;14.71;100.00
13209;BME280;6669;42.678;23.332;2023-05-08T06:19:30;94735.41;;;14.75;100.00
13209;BME280;6669;42.678;23.332;2023-05-08T06:22:00;94726.59;;;14.90;100.00
13209;BME280;6669;42.678;23.332;2023-05-08T06:24:28;94732.31;;;15.13;100.00
13209;BME280;6669;42.678;23.332;2023-05-08T06:26:59;94729.94;;;15.25;100.00
13209;BME280;6669;42.678;23.332;2023-05-08T06:29:27;94728.72;;;15.41;100.00
13209;BME280;6669;42.678;23.332;2023-05-08T06:31:55;94732.38;;;15.47;100.00
13209;BME280;6669;42.678;23.332;2023-05-08T06:34:23;94736.22;;;15.51;100.00
13209;BME280;6669;42.678;23.332;2023-05-08T06:36:50;94726.34;;;15.46;100.00
13209;BME280;6669;42.678;23.332;2023-05-08T06:39:20;94737.22;;;15.77;100.00
13209;BME280;6669;42.678;23.332;2023-05-08T06:41:48;94736.63;;;15.75;100.00
13209;BME280;6669;42.678;23.332;2023-05-08T06:44:16;94740.06;;;15.68;100.00
13209;BME280;6669;42.678;23.332;2023-05-08T06:46:44;94739.91;;;15.90;100.00
13209;BME280;6669;42.678;23.332;2023-05-08T06:49:12;94738.47;;;16.08;100.00
13209;BME280;6669;42.678;23.332;2023-05-08T06:51:40;94734.22;;;16.27;100.00
13209;BME280;6669;42.678;23.332;2023-05-08T06:54:08;94736.03;;;16.33;100.00
13209;BME280;6669;42.678;23.332;2023-05-08T06:56:37;94731.16;;;16.43;100.00
13209;BME280;6669;42.678;23.332;2023-05-08T06:59:05;94734.94;;;16.54;100.00
13209;BME280;6669;42.678;23.332;2023-05-08T07:01:34;94732.72;;;16.58;100.00
13209;BME280;6669;42.678;23.332;2023-05-08T07:04:04;94735.97;;;16.60;100.00
13209;BME280;6669;42.678;23.332;2023-05-08T07:06:32;94735.13;;;16.66;100.00
13209;BME280;6669;42.678;23.332;2023-05-08T07:09:00;94740.38;;;16.66;100.00
13209;BME280;6669;42.678;23.332;2023-05-08T07:11:28;94740.19;;;16.67;100.00
13209;BME280;6669;42.678;23.332;2023-05-08T07:13:57;94742.34;;;16.84;100.00
13209;BME280;6669;42.678;23.332;2023-05-08T07:16:25;94739.72;;;16.84;100.00
13209;BME280;6669;42.678;23.332;2023-05-08T07:18:53;94738.28;;;16.95;100.00
13209;BME280;6669;42.678;23.332;2023-05-08T07:21:21;94736.81;;;17.06;100.00
13209;BME280;6669;42.678;23.332;2023-05-08T07:23:49;94740.63;;;17.10;100.00
13209;BME280;6669;42.678;23.332;2023-05-08T07:26:19;94739.75;;;17.23;100.00
13209;BME280;6669;42.678;23.332;2023-05-08T07:28:48;94735.78;;;17.13;100.00
13209;BME280;6669;42.678;23.332;2023-05-08T07:31:20;94737.97;;;17.16;100.00
13209;BME280;6669;42.678;23.332;2023-05-08T07:33:48;94738.19;;;17.15;100.00
13209;BME280;6669;42.678;23.332;2023-05-08T07:36:16;94736.16;;;17.17;100.00
13209;BME280;6669;42.678;23.332;2023-05-08T07:38:45;94741.34;;;17.30;100.00
13209;BME280;6669;42.678;23.332;2023-05-08T07:41:12;94738.38;;;17.52;100.00
13209;BME280;6669;42.678;23.332;2023-05-08T07:43:40;94732.91;;;17.54;100.00
13209;BME280;6669;42.678;23.332;2023-05-08T07:46:15;94739.47;;;17.70;100.00
13209;BME280;6669;42.678;23.332;2023-05-08T07:48:45;94738.84;;;17.74;100.00
13209;BME280;6669;42.678;23.332;2023-05-08T07:51:13;94714.50;;;17.54;100.00
13209;BME280;6669;42.678;23.332;2023-05-08T07:53:41;94746.72;;;17.74;100.00
13209;BME280;6669;42.678;23.332;2023-05-08T07:56:10;94730.13;;;17.74;100.00
13209;BME280;6669;42.678;23.332;2023-05-08T07:58:38;94748.69;;;17.79;100.00
13209;BME280;6669;42.678;23.332;2023-05-08T08:01:06;94741.63;;;17.79;100.00
13209;BME280;6669;42.678;23.332;2023-05-08T08:03:33;94732.47;;;17.89;100.00
13209;BME280;6669;42.678;23.332;2023-05-08T08:06:03;94740.84;;;18.04;100.00
13209;BME280;6669;42.678;23.332;2023-05-08T08:08:31;94746.00;;;18.18;100.00
13209;BME280;6669;42.678;23.332;2023-05-08T08:11:00;94746.25;;;18.35;100.00
13209;BME280;6669;42.678;23.332;2023-05-08T08:13:29;94748.34;;;18.26;100.00
13209;BME280;6669;42.678;23.332;2023-05-08T08:15:58;94755.53;;;17.93;100.00
13209;BME280;6669;42.678;23.332;2023-05-08T08:18:26;94754.19;;;17.77;100.00
13209;BME280;6669;42.678;23.332;2023-05-08T08:20:54;94759.50;;;17.71;100.00
13209;BME280;6669;42.678;23.332;2023-05-08T08:23:23;94735.84;;;17.71;100.00
13209;BME280;6669;42.678;23.332;2023-05-08T08:25:51;94719.09;;;17.90;100.00
13209;BME280;6669;42.678;23.332;2023-05-08T08:28:19;94747.09;;;18.10;100.00
13209;BME280;6669;42.678;23.332;2023-05-08T08:30:48;94733.28;;;18.14;100.00
13209;BME280;6669;42.678;23.332;2023-05-08T08:33:16;94712.00;;;18.16;100.00
13209;BME280;6669;42.678;23.332;2023-05-08T08:35:44;94740.50;;;18.44;100.00
13209;BME280;6669;42.678;23.332;2023-05-08T08:38:12;94725.50;;;18.63;100.00
13209;BME280;6669;42.678;23.332;2023-05-08T08:40:44;94717.53;;;18.70;100.00
13209;BME280;6669;42.678;23.332;2023-05-08T08:43:12;94725.78;;;18.92;100.00
13209;BME280;6669;42.678;23.332;2023-05-08T08:45:41;94727.34;;;19.00;100.00
13209;BME280;6669;42.678;23.332;2023-05-08T08:48:10;94725.19;;;19.09;100.00
13209;BME280;6669;42.678;23.332;2023-05-08T08:50:41;94719.63;;;19.17;100.00
13209;BME280;6669;42.678;23.332;2023-05-08T08:53:14;94723.88;;;19.18;100.00
13209;BME280;6669;42.678;23.332;2023-05-08T08:55:49;94712.66;;;19.23;100.00
13209;BME280;6669;42.678;23.332;2023-05-08T08:58:21;94707.16;;;19.24;100.00
13209;BME280;6669;42.678;23.332;2023-05-08T09:00:54;94709.47;;;19.33;100.00
13209;BME280;6669;42.678;23.332;2023-05-08T09:03:22;94701.97;;;19.18;100.00
13209;BME280;6669;42.678;23.332;2023-05-08T09:05:50;94698.84;;;19.09;100.00
13209;BME280;6669;42.678;23.332;2023-05-08T09:08:18;94697.53;;;19.18;100.00
13209;BME280;6669;42.678;23.332;2023-05-08T09:10:48;94685.03;;;19.25;100.00
13209;BME280;6669;42.678;23.332;2023-05-08T09:13:16;94688.75;;;19.36;100.00
13209;BME280;6669;42.678;23.332;2023-05-08T09:15:46;94669.94;;;19.33;100.00
13209;BME280;6669;42.678;23.332;2023-05-08T09:18:14;94675.47;;;19.43;100.00
13209;BME280;6669;42.678;23.332;2023-05-08T09:20:43;94659.66;;;19.43;100.00
13209;BME280;6669;42.678;23.332;2023-05-08T09:23:11;94671.28;;;19.66;100.00
13209;BME280;6669;42.678;23.332;2023-05-08T09:25:43;94664.09;;;19.85;100.00
13209;BME280;6669;42.678;23.332;2023-05-08T09:28:17;94644.47;;;19.92;100.00
13209;BME280;6669;42.678;23.332;2023-05-08T09:30:50;94649.16;;;20.14;100.00
13209;BME280;6669;42.678;23.332;2023-05-08T09:33:19;94655.59;;;20.18;100.00
13209;BME280;6669;42.678;23.332;2023-05-08T09:35:47;94658.00;;;20.32;100.00
13209;BME280;6669;42.678;23.332;2023-05-08T09:38:32;94662.25;;;20.33;100.00
13209;BME280;6669;42.678;23.332;2023-05-08T09:41:08;94667.53;;;20.33;100.00
13209;BME280;6669;42.678;23.332;2023-05-08T09:43:38;94669.78;;;20.41;100.00
13209;BME280;6669;42.678;23.332;2023-05-08T09:46:22;94678.63;;;20.35;100.00
13209;BME280;6669;42.678;23.332;2023-05-08T09:48:52;94667.97;;;20.41;100.00
13209;BME280;6669;42.678;23.332;2023-05-08T09:51:21;94680.34;;;20.41;100.00
13209;BME280;6669;42.678;23.332;2023-05-08T09:53:50;94677.84;;;20.34;100.00
13209;BME280;6669;42.678;23.332;2023-05-08T09:56:36;94677.28;;;20.20;100.00
13209;BME280;6669;42.678;23.332;2023-05-08T09:59:21;94668.44;;;20.15;100.00
13209;BME280;6669;42.678;23.332;2023-05-08T10:01:49;94672.22;;;20.31;100.00
13209;BME280;6669;42.678;23.332;2023-05-08T10:04:30;94662.09;;;20.51;100.00
13209;BME280;6669;42.678;23.332;2023-05-08T10:06:59;94652.25;;;20.35;100.00
13209;BME280;6669;42.678;23.332;2023-05-08T10:09:27;94666.28;;;20.64;100.00
13209;BME280;6669;42.678;23.332;2023-05-08T10:12:12;94654.47;;;20.67;100.00
13209;BME280;6669;42.678;23.332;2023-05-08T10:14:42;94637.03;;;20.54;100.00
13209;BME280;6669;42.678;23.332;2023-05-08T10:17:13;94665.19;;;20.48;100.00
13209;BME280;6669;42.678;23.332;2023-05-08T10:19:47;94665.75;;;20.50;100.00
13209;BME280;6669;42.678;23.332;2023-05-08T10:22:20;94650.63;;;20.46;100.00
13209;BME280;6669;42.678;23.332;2023-05-08T10:24:52;94658.06;;;20.61;100.00
13209;BME280;6669;42.678;23.332;2023-05-08T10:27:28;94650.38;;;20.47;100.00
13209;BME280;6669;42.678;23.332;2023-05-08T10:30:01;94650.72;;;20.51;100.00
13209;BME280;6669;42.678;23.332;2023-05-08T10:32:36;94650.13;;;20.72;100.00
13209;BME280;6669;42.678;23.332;2023-05-08T10:35:09;94642.44;;;20.59;100.00
13209;BME280;6669;42.678;23.332;2023-05-08T10:37:38;94640.38;;;20.61;100.00
13209;BME280;6669;42.678;23.332;2023-05-08T10:40:08;94637.44;;;20.86;100.00
13209;BME280;6669;42.678;23.332;2023-05-08T10:42:37;94613.84;;;20.97;100.00
13209;BME280;6669;42.678;23.332;2023-05-08T10:45:08;94632.88;;;21.28;100.00
13209;BME280;6669;42.678;23.332;2023-05-08T10:47:56;94625.44;;;21.42;100.00
13209;BME280;6669;42.678;23.332;2023-05-08T10:50:45;94625.72;;;21.74;100.00
13209;BME280;6669;42.678;23.332;2023-05-08T10:53:21;94627.94;;;21.99;100.00
13209;BME280;6669;42.678;23.332;2023-05-08T10:55:51;94625.13;;;22.45;96.67
13209;BME280;6669;42.678;23.332;2023-05-08T10:58:31;94617.75;;;22.52;98.77
13209;BME280;6669;42.678;23.332;2023-05-08T11:01:11;94622.16;;;22.25;95.72
13209;BME280;6669;42.678;23.332;2023-05-08T11:03:42;94615.41;;;21.95;100.00
13209;BME280;6669;42.678;23.332;2023-05-08T11:06:11;94614.75;;;22.04;100.00
13209;BME280;6669;42.678;23.332;2023-05-08T11:08:47;94608.88;;;22.64;96.38
13209;BME280;6669;42.678;23.332;2023-05-08T11:11:22;94598.38;;;23.24;93.77
13209;BME280;6669;42.678;23.332;2023-05-08T11:13:56;94607.81;;;23.79;86.45
13209;BME280;6669;42.678;23.332;2023-05-08T11:19:30;94590.56;;;24.20;80.52
13209;BME280;6669;42.678;23.332;2023-05-08T11:22:21;94595.13;;;24.35;78.52
13209;BME280;6669;42.678;23.332;2023-05-08T11:25:01;94588.06;;;24.03;78.55
13209;BME280;6669;42.678;23.332;2023-05-08T11:30:24;94578.88;;;24.21;79.65
13209;BME280;6669;42.678;23.332;2023-05-08T11:33:14;94577.94;;;24.47;81.04
13209;BME280;6669;42.678;23.332;2023-05-08T11:35:48;94570.66;;;25.01;74.16
13209;BME280;6669;42.678;23.332;2023-05-08T11:38:22;94568.03;;;25.48;69.16
13209;BME280;6669;42.678;23.332;2023-05-08T11:40:55;94560.47;;;26.01;68.31
13209;BME280;6669;42.678;23.332;2023-05-08T11:43:48;94559.31;;;26.43;64.19
13209;BME280;6669;42.678;23.332;2023-05-08T11:46:21;94550.13;;;26.65;65.20
13209;BME280;6669;42.678;23.332;2023-05-08T11:48:57;94554.22;;;26.97;61.12
13209;BME280;6669;42.678;23.332;2023-05-08T11:51:29;94542.75;;;26.97;61.85
13209;BME280;6669;42.678;23.332;2023-05-08T11:53:58;94532.25;;;27.11;60.56
13209;BME280;6669;42.678;23.332;2023-05-08T11:56:32;94534.81;;;27.55;59.76
13209;BME280;6669;42.678;23.332;2023-05-08T11:59:01;94525.66;;;26.53;60.91
13209;BME280;6669;42.678;23.332;2023-05-08T12:01:30;94528.22;;;26.18;61.48
13209;BME280;6669;42.678;23.332;2023-05-08T12:03:59;94517.81;;;26.72;60.40
13209;BME280;6669;42.678;23.332;2023-05-08T12:06:30;94518.44;;;25.93;61.98
13209;BME280;6669;42.678;23.332;2023-05-08T12:08:59;94525.69;;;24.89;63.59
13209;BME280;6669;42.678;23.332;2023-05-08T12:11:30;94525.66;;;24.69;66.09
13209;BME280;6669;42.678;23.332;2023-05-08T12:13:58;94528.03;;;24.70;67.42
13209;BME280;6669;42.678;23.332;2023-05-08T12:16:26;94522.91;;;24.38;70.64
13209;BME280;6669;42.678;23.332;2023-05-08T12:18:55;94520.00;;;24.55;68.38
13209;BME280;6669;42.678;23.332;2023-05-08T12:21:23;94513.09;;;24.48;68.02
13209;BME280;6669;42.678;23.332;2023-05-08T12:23:54;94508.38;;;24.66;66.71
13209;BME280;6669;42.678;23.332;2023-05-08T12:26:22;94516.41;;;25.38;66.95
13209;BME280;6669;42.678;23.332;2023-05-08T12:28:54;94505.47;;;25.29;64.13
13209;BME280;6669;42.678;23.332;2023-05-08T12:31:22;94507.63;;;24.91;63.65
13209;BME280;6669;42.678;23.332;2023-05-08T12:33:51;94496.09;;;24.55;65.77
13209;BME280;6669;42.678;23.332;2023-05-08T12:36:19;94505.00;;;24.07;66.70
13209;BME280;6669;42.678;23.332;2023-05-08T12:38:49;94500.59;;;24.39;66.14
13209;BME280;6669;42.678;23.332;2023-05-08T12:41:23;94505.69;;;24.61;65.27
13209;BME280;6669;42.678;23.332;2023-05-08T12:43:52;94513.88;;;24.44;65.01
13209;BME280;6669;42.678;23.332;2023-05-08T12:46:20;94510.19;;;24.50;66.23
13209;BME280;6669;42.678;23.332;2023-05-08T12:48:48;94515.66;;;24.18;66.76
13209;BME280;6669;42.678;23.332;2023-05-08T12:51:16;94511.69;;;23.72;69.67
13209;BME280;6669;42.678;23.332;2023-05-08T12:53:45;94504.59;;;23.02;71.95
13209;BME280;6669;42.678;23.332;2023-05-08T12:56:12;94503.81;;;22.47;75.45
13209;BME280;6669;42.678;23.332;2023-05-08T12:58:43;94498.63;;;22.35;76.73
13209;BME280;6669;42.678;23.332;2023-05-08T13:01:11;94495.19;;;22.57;77.25
13209;BME280;6669;42.678;23.332;2023-05-08T13:03:40;94482.84;;;23.00;75.10
13209;BME280;6669;42.678;23.332;2023-05-08T13:06:18;94497.28;;;23.53;74.49
13209;BME280;6669;42.678;23.332;2023-05-08T13:08:52;94504.88;;;23.81;81.83
13209;BME280;6669;42.678;23.332;2023-05-08T13:11:27;94508.38;;;23.12;92.43
13209;BME280;6669;42.678;23.332;2023-05-08T13:13:58;94505.94;;;22.45;100.00
13209;BME280;6669;42.678;23.332;2023-05-08T13:16:26;94512.84;;;21.63;100.00
13209;BME280;6669;42.678;23.332;2023-05-08T13:18:54;94514.94;;;21.27;100.00
13209;BME280;6669;42.678;23.332;2023-05-08T13:21:22;94523.22;;;21.13;100.00